Data for 10/13/2010

Time Sea-Level Adjusted Pressure Absolute Pressure Temperature Relative Humidity Dew Point   
(mb) (inHg) (mb) (inHg) (C) (F) (%) (C) (F)
00:05 1030 30.42 859 25.37 4.6 40.3 41 -7.7 18.2
00:10 1030 30.42 859 25.37 4.5 40.1 40 -8 17.6
00:15 1030 30.42 859 25.37 4.6 40.3 41 -7.6 18.3
00:20 1030 30.42 859 25.37 4.1 39.4 44 -6.9 19.5
00:25 1030 30.42 859 25.37 3.7 38.7 45 -7.3 18.9
00:30 1030 30.42 859 25.37 3.7 38.6 43 -7.7 18.2
00:35 1030 30.42 859 25.37 4 39.3 42 -7.6 18.3
00:40 1030 30.42 859 25.37 4.4 40 39 -8.2 17.2
00:45 1030 30.42 859 25.37 4.4 40 42 -7.4 18.7
00:50 1030 30.42 859 25.37 3.8 38.8 47 -6.6 20.2
00:55 1030 30.42 859 25.37 3.1 37.6 48 -6.9 19.6
01:00 1030 30.42 859 25.37 3.2 37.7 44 -8 17.6
01:05 1030 30.42 859 25.37 3.8 38.9 41 -8.3 17.1
01:10 1030 30.42 859 25.37 4.2 39.6 39 -8.6 16.5
01:15 1030 30.42 859 25.37 4.3 39.8 39 -8.5 16.8
01:20 1030 30.42 859 25.37 4.3 39.8 39 -8.5 16.7
01:25 1030 30.42 859 25.37 4.2 39.5 39 -8.6 16.5
01:30 1030 30.42 859 25.37 4.2 39.5 38 -8.9 16.1
01:35 1030 30.42 859 25.37 4.4 39.9 39 -8.4 16.8
01:40 1030 30.42 859 25.37 4.5 40 41 -7.7 18.1
01:45 1030 30.42 859 25.37 4.3 39.7 41 -7.8 18
01:50 1030 30.42 859 25.37 4 39.3 42 -7.7 18.1
01:55 1030 30.42 859 25.37 3.6 38.5 45 -7.2 19
02:00 1030 30.42 859 25.37 3 37.4 48 -6.9 19.6
02:05 1030 30.42 859 25.37 2.5 36.5 49 -7.3 18.9
02:10 1030 30.42 859 25.37 2.8 37 44 -8.2 17.2
02:15 1030 30.42 859 25.37 3 37.5 47 -7.2 19
02:20 1030 30.42 859 25.37 2.6 36.6 48 -7.4 18.6
02:25 1030 30.42 859 25.37 2.5 36.6 47 -7.6 18.4
02:30 1030 30.42 859 25.37 2.6 36.6 47 -7.7 18.2
02:35 1030 30.42 859 25.37 2.5 36.5 45 -8.2 17.2
02:40 1030 30.42 859 25.37 2.6 36.6 44 -8.5 16.8
02:45 1030 30.42 859 25.37 3 37.4 41 -8.8 16.1
02:50 1030 30.42 859 25.37 2.9 37.3 43 -8.4 16.9
02:55 1030 30.42 859 25.37 3.2 37.8 44 -7.8 18
03:00 1030 30.42 859 25.37 3 37.3 46 -7.5 18.5
03:05 1030 30.42 859 25.37 2.8 37.1 45 -8 17.6
03:10 1030 30.42 859 25.37 3 37.5 40 -9.1 15.5
03:15 1030 30.42 859 25.37 3.8 38.8 41 -8.4 16.9
03:20 1029 30.39 859 25.37 3.7 38.7 41 -8.3 17.1
03:25 1029 30.39 859 25.37 3.5 38.4 41 -8.6 16.5
03:30 1029 30.39 859 25.37 3.4 38.1 44 -7.8 18
03:35 1029 30.39 859 25.37 3.2 37.8 42 -8.6 16.6
03:40 1029 30.39 858 25.34 3.1 37.6 44 -8 17.7
03:45 1029 30.39 858 25.34 2.7 36.9 45 -8.2 17.2
03:50 1029 30.39 858 25.34 2.8 37.1 43 -8.6 16.5
03:55 1029 30.39 858 25.34 3.3 37.9 41 -8.8 16.1
04:00 1029 30.39 858 25.34 3.6 38.4 39 -9 15.8
04:05 1029 30.39 858 25.34 3.8 38.8 39 -8.8 16.1
04:10 1029 30.39 858 25.34 3.6 38.4 41 -8.4 16.8
04:15 1029 30.39 858 25.34 3.5 38.3 42 -8.3 17
04:20 1029 30.39 858 25.34 3.5 38.4 39 -9 15.8
04:25 1029 30.39 858 25.34 3.7 38.7 41 -8.5 16.8
04:30 1029 30.39 858 25.34 3.5 38.3 41 -8.6 16.5
04:35 1029 30.39 858 25.34 3.5 38.2 41 -8.7 16.3
04:40 1029 30.39 858 25.34 3.5 38.3 39 -9.2 15.4
04:45 1029 30.39 858 25.34 3.8 38.9 39 -9 15.8
04:50 1029 30.39 858 25.34 3.8 38.9 41 -8.2 17.3
04:55 1029 30.39 858 25.34 3.4 38.2 42 -8.2 17.3
05:00 1029 30.39 858 25.34 3.3 38 43 -8.2 17.3
05:05 1029 30.39 858 25.34 3 37.4 45 -7.7 18.1
05:10 1029 30.39 858 25.34 2.9 37.3 44 -8.3 17.1
05:15 1029 30.39 858 25.34 3.3 37.9 44 -7.8 17.9
05:20 1029 30.39 858 25.34 2.8 37.1 46 -7.7 18.1
05:25 1029 30.39 858 25.34 3.1 37.6 41 -9 15.8
05:30 1029 30.39 858 25.34 3.7 38.6 41 -8.5 16.7
05:35 1029 30.39 858 25.34 3.4 38.1 40 -8.9 16
05:40 1029 30.39 858 25.34 3.7 38.6 39 -9 15.8
05:45 1029 30.39 858 25.34 3.4 38.1 42 -8.3 17.1
05:50 1029 30.39 858 25.34 3.1 37.6 42 -8.6 16.5
05:55 1029 30.39 858 25.34 2.9 37.3 43 -8.5 16.6
06:00 1029 30.39 858 25.34 2.7 36.9 44 -8.4 16.8
06:05 1029 30.39 858 25.34 2.6 36.8 44 -8.5 16.7
06:10 1029 30.39 858 25.34 2.9 37.2 42 -8.8 16.2
06:15 1029 30.39 858 25.34 2.9 37.2 44 -8.3 17.1
06:20 1029 30.39 858 25.34 2.9 37.1 43 -8.7 16.4
06:25 1029 30.39 858 25.34 3 37.4 43 -8.5 16.8
06:30 1029 30.39 858 25.34 2.9 37.1 44 -8.1 17.4
06:35 1029 30.39 858 25.34 2.6 36.7 45 -8.1 17.4
06:40 1029 30.39 858 25.34 2.4 36.4 44 -8.6 16.6
06:45 1029 30.39 858 25.34 2.9 37.2 41 -9.2 15.4
06:50 1029 30.39 858 25.34 3.3 38 40 -8.9 15.9
06:55 1029 30.39 858 25.34 3.4 38.1 40 -9 15.8
07:00 1029 30.39 859 25.37 3.5 38.4 41 -8.7 16.4
07:05 1029 30.39 859 25.37 3.3 38 39 -9.4 15.1
07:10 1029 30.39 859 25.37 3.7 38.7 40 -8.8 16.2
07:15 1029 30.39 859 25.37 3.5 38.3 42 -8.1 17.4
07:20 1030 30.42 859 25.37 3.5 38.3 39 -9.3 15.2
07:25 1029 30.39 859 25.37 4.2 39.6 38 -9 15.8
07:30 1030 30.42 859 25.37 4.3 39.7 40 -8 17.6
07:35 1030 30.42 859 25.37 3.7 38.7 43 -7.6 18.3
07:40 1030 30.42 859 25.37 3.1 37.5 44 -8 17.7
07:45 1030 30.42 859 25.37 3.1 37.6 45 -7.7 18.1
07:50 1030 30.42 859 25.37 2.6 36.7 50 -6.8 19.8
07:55 1030 30.42 859 25.37 2.3 36.2 44 -8.8 16.2
08:00 1030 30.42 859 25.37 3 37.4 48 -7 19.4
08:05 1030 30.42 859 25.37 2.4 36.4 45 -8.3 17
08:10 1030 30.42 859 25.37 2.6 36.7 44 -8.5 16.8
08:15 1030 30.42 859 25.37 2.7 36.9 44 -8.4 16.8
08:20 1030 30.42 859 25.37 2.8 37 43 -8.5 16.7
08:25 1030 30.42 859 25.37 2.8 37 48 -7.3 18.8
08:30 1030 30.42 859 25.37 2.4 36.3 48 -7.6 18.3
08:35 1030 30.42 859 25.37 2.3 36.2 49 -7.3 18.8
08:40 1030 30.42 859 25.37 2.5 36.5 46 -7.9 17.8
08:45 1030 30.42 859 25.37 2.8 37.1 47 -7.4 18.7
08:50 1030 30.42 859 25.37 3 37.3 42 -8.6 16.5
08:55 1030 30.42 859 25.37 3.5 38.3 40 -9 15.8
09:00 1030 30.42 859 25.37 4 39.1 38 -9 15.8
09:05 1030 30.42 859 25.37 4.2 39.5 39 -8.6 16.5
09:10 1030 30.42 859 25.37 4.3 39.8 37 -9.1 15.7
09:15 1030 30.42 859 25.37 4.6 40.2 40 -7.8 17.9
09:20 1030 30.42 859 25.37 4.9 40.7 33 -10.2 13.7
09:25 1030 30.42 859 25.37 5.5 42 35 -8.8 16.1
09:30 1030 30.42 859 25.37 5.7 42.3 36 -8.2 17.3
09:35 1030 30.42 859 25.37 6.3 43.3 35 -7.9 17.7
09:40 1030 30.42 859 25.37 6.6 43.8 39 -6.5 20.3
09:45 1030 30.42 859 25.37 6.8 44.3 36 -7.1 19.3
09:50 1030 30.42 859 25.37 7.5 45.6 35 -6.9 19.6
09:55 1030 30.42 859 25.37 7.7 45.8 38 -5.8 21.5
10:00 1030 30.42 859 25.37 7.7 45.8 40 -5.2 22.6
10:05 1030 30.42 859 25.37 7.4 45.3 41 -4.9 23.2
10:10 1030 30.42 859 25.37 7.7 45.8 39 -5.3 22.4
10:15 1030 30.42 859 25.37 8.6 47.4 35 -6.2 20.9
10:20 1030 30.42 859 25.37 9.1 48.4 29 -7.9 17.8
10:25 1030 30.42 859 25.37 9.3 48.7 28 -8.1 17.5
10:30 1030 30.42 859 25.37 10 49.9 28 -7.6 18.3
10:35 1030 30.42 859 25.37 10.1 50.3 28 -7.4 18.7
10:40 1030 30.42 859 25.37 9.5 49.1 29 -7.7 18.1
10:45 1030 30.42 859 25.37 9.4 48.8 27 -8.6 16.5
10:50 1030 30.42 859 25.37 9.9 49.9 28 -7.9 17.7
10:55 1030 30.42 859 25.37 10.7 51.2 29 -6.8 19.8
11:00 1030 30.42 859 25.37 11.2 52.1 27 -6.9 19.5
11:05 1030 30.42 859 25.37 11.3 52.4 28 -6.4 20.4
11:10 1030 30.42 859 25.37 11.7 53 27 -6.8 19.8
11:15 1030 30.42 859 25.37 11.8 53.3 26 -7.2 19
11:20 1030 30.42 859 25.37 12 53.6 26 -6.7 19.9
11:25 1030 30.42 859 25.37 11.8 53.3 26 -7 19.5
11:30 1030 30.42 859 25.37 12.2 53.9 25 -7.3 18.9
11:35 1030 30.42 859 25.37 11.4 52.5 27 -7 19.4
11:40 1030 30.42 859 25.37 11.1 52 27 -7.4 18.6
11:45 1030 30.42 859 25.37 10.6 51.1 30 -6.2 20.9
11:50 1030 30.42 859 25.37 11.3 52.4 25 -7.9 17.8
11:55 1030 30.42 859 25.37 11.9 53.4 25 -7.3 18.9
12:00 1030 30.42 859 25.37 12.4 54.4 25 -7 19.5
12:05 1030 30.42 859 25.37 12.8 55.1 25 -6.8 19.8
12:10 1030 30.42 859 25.37 13.6 56.6 24 -6.4 20.5
12:15 1030 30.42 859 25.37 13 55.4 27 -5.7 21.7
12:20 1030 30.42 859 25.37 13.1 55.5 25 -6.6 20.1
12:25 1030 30.42 859 25.37 13.8 56.9 25 -6.1 21.1
12:30 1030 30.42 859 25.37 14.4 57.9 24 -6.1 21
12:35 1030 30.42 859 25.37 14.8 58.6 24 -5.4 22.2
12:40 1030 30.42 859 25.37 14.8 58.6 23 -6.4 20.6
12:45 1030 30.42 859 25.37 14.6 58.3 24 -5.9 21.4
12:50 1030 30.42 859 25.37 14.7 58.4 24 -5.5 22
12:55 1029 30.39 859 25.37 14.9 58.9 23 -5.7 21.7
13:00 1029 30.39 859 25.37 14.9 58.7 24 -5.2 22.7
13:05 1029 30.39 859 25.37 14.9 58.9 24 -5.3 22.5
13:10 1029 30.39 859 25.37 15.6 60.1 24 -5 23.1
13:15 1029 30.39 858 25.34 16 60.8 24 -4.7 23.6
13:20 1029 30.39 858 25.34 15.8 60.5 23 -5.2 22.6
13:25 1029 30.39 858 25.34 15.5 59.9 23 -5.2 22.6
13:30 1029 30.39 858 25.34 16.1 61 21 -6.3 20.6
13:35 1029 30.39 858 25.34 15.5 59.9 23 -5.3 22.5
13:40 1029 30.39 858 25.34 16.4 61.6 22 -5 23
13:45 1029 30.39 858 25.34 16.8 62.2 22 -4.8 23.3
13:50 1029 30.39 858 25.34 15.6 60.1 23 -5.5 22
13:55 1029 30.39 858 25.34 16.9 62.4 21 -5.3 22.5
14:00 1029 30.39 858 25.34 17 62.6 19 -6.8 19.7
14:05 1029 30.39 858 25.34 17 62.6 18 -7.4 18.7
14:10 1029 30.39 858 25.34 17.3 63.2 18 -7.5 18.6
14:15 1028 30.36 858 25.34 18.3 65 17 -7.1 19.2
14:20 1028 30.36 858 25.34 18.6 65.4 17 -6.8 19.8
14:25 1028 30.36 858 25.34 18.9 66 16 -7 19.4
14:30 1028 30.36 857 25.31 18.4 65.2 16 -7.4 18.6
14:35 1028 30.36 857 25.31 18.6 65.4 17 -6.9 19.6
14:40 1028 30.36 857 25.31 17 62.6 18 -7.8 18
14:45 1028 30.36 857 25.31 17 62.7 16 -8.7 16.4
14:50 1028 30.36 857 25.31 17.8 64 15 -9.1 15.6
14:55 1028 30.36 857 25.31 17.9 64.2 15 -8.8 16.1
15:00 1028 30.36 857 25.31 18.1 64.5 14 -9.7 14.6
15:05 1028 30.36 857 25.31 17.8 64.1 14 -10.2 13.7
15:10 1028 30.36 857 25.31 18 64.4 15 -9.2 15.4
15:15 1028 30.36 857 25.31 18.6 65.5 13 -10.5 13.1
15:20 1028 30.36 857 25.31 18.7 65.7 14 -9.2 15.4
15:25 1028 30.36 857 25.31 18.2 64.8 14 -9.7 14.5
15:30 1028 30.36 857 25.31 18.2 64.7 14 -9.3 15.2
15:35 1028 30.36 857 25.31 17.9 64.1 15 -9 15.8
15:40 1028 30.36 857 25.31 18.2 64.7 15 -8.9 15.9
15:45 1028 30.36 857 25.31 18.7 65.6 14 -9.6 14.8
15:50 1028 30.36 857 25.31 19.7 67.4 13 -9.1 15.6
15:55 1028 30.36 857 25.31 19.4 66.8 13 -9.7 14.5
16:00 1027 30.33 857 25.31 18.4 65.2 14 -9.9 14.2
16:05 1027 30.33 857 25.31 18.4 65.1 14 -9.3 15.2
16:10 1027 30.33 857 25.31 18.9 66 13 -10.1 13.9
16:15 1027 30.33 857 25.31 19.1 66.5 14 -9.3 15.2
16:20 1027 30.33 857 25.31 18.7 65.6 15 -8.8 16.2
16:25 1027 30.33 857 25.31 18.5 65.2 14 -9.8 14.3
16:30 1027 30.33 856 25.28 19.3 66.7 13 -9.9 14.2
16:35 1027 30.33 856 25.28 19.5 67.1 13 -9.5 15
16:40 1027 30.33 856 25.28 18.5 65.2 13 -10.7 12.7
16:45 1027 30.33 856 25.28 18.6 65.4 14 -9.7 14.6
16:50 1027 30.33 856 25.28 19.1 66.4 13 -9.7 14.5
16:55 1027 30.33 856 25.28 19.9 67.7 13 -9.4 15
17:00 1027 30.33 856 25.28 19.1 66.4 14 -9.2 15.5
17:05 1027 30.33 856 25.28 19.4 66.8 13 -9.8 14.3
17:10 1027 30.33 856 25.28 19.9 67.9 13 -8.9 16
17:15 1027 30.33 856 25.28 19.8 67.6 14 -8.8 16.2
17:20 1027 30.33 856 25.28 19.7 67.5 13 -9.2 15.4
17:25 1027 30.33 856 25.28 18.9 66.1 14 -9.2 15.4
17:30 1027 30.33 856 25.28 18.7 65.6 14 -9.3 15.2
17:35 1027 30.33 856 25.28 18.9 66 14 -9 15.9
17:40 1027 30.33 856 25.28 19.2 66.5 14 -9.1 15.6
17:45 1027 30.33 856 25.28 18.8 65.9 14 -9.2 15.4
17:50 1027 30.33 856 25.28 18.4 65.1 15 -9.1 15.7
17:55 1027 30.33 856 25.28 18 64.4 15 -9 15.9
18:00 1027 30.33 856 25.28 17.9 64.3 14 -9.5 14.9
18:05 1027 30.33 856 25.28 18 64.5 15 -9.2 15.5
18:10 1027 30.33 856 25.28 18.3 65 14 -9.4 15.1
18:15 1027 30.33 856 25.28 18.5 65.2 15 -9 15.8
18:20 1026 30.3 856 25.28 18.4 65 16 -8 17.6
18:25 1026 30.3 856 25.28 18.3 65 19 -5.3 22.5
18:30 1026 30.3 856 25.28 17.5 63.6 24 -2.9 26.8
18:35 1026 30.3 856 25.28 16.2 61.2 28 -2.3 27.8
18:40 1026 30.3 856 25.28 15.3 59.5 29 -2.4 27.7
18:45 1026 30.3 856 25.28 14.4 57.9 34 -1.3 29.7
18:50 1026 30.3 856 25.28 13.8 56.8 34 -1.9 28.5
18:55 1026 30.3 856 25.28 13.5 56.3 35 -1.5 29.3
19:00 1026 30.3 856 25.28 13.2 55.8 37 -1.1 30
19:05 1026 30.3 856 25.28 13.1 55.5 37 -1.2 29.9
19:10 1026 30.3 856 25.28 13.1 55.5 34 -2.5 27.5
19:15 1026 30.3 856 25.28 12.6 54.7 35 -2.2 28
19:20 1026 30.3 856 25.28 12.4 54.3 34 -2.9 26.8
19:25 1026 30.3 856 25.28 12.3 54.1 38 -1.7 28.9
19:30 1026 30.3 856 25.28 12.1 53.7 36 -2.4 27.7
19:35 1026 30.3 856 25.28 11.8 53.2 39 -1.9 28.6
19:40 1026 30.3 856 25.28 11.3 52.3 41 -1.3 29.6
19:45 1026 30.3 856 25.28 10.8 51.4 42 -1.7 28.9
19:50 1026 30.3 856 25.28 10.7 51.3 38 -2.9 26.8
19:55 1026 30.3 856 25.28 11 51.7 37 -3.3 26.1
20:00 1026 30.3 856 25.28 11.4 52.6 36 -3.1 26.4
20:05 1026 30.3 855 25.25 11.5 52.8 34 -3.7 25.3
20:10 1026 30.3 855 25.25 11.7 53 35 -3.1 26.4
20:15 1026 30.3 855 25.25 11.5 52.7 37 -2.8 27
20:20 1026 30.3 856 25.28 11 51.9 40 -2.1 28.3
20:25 1026 30.3 856 25.28 10.9 51.6 37 -3.2 26.2
20:30 1026 30.3 856 25.28 11.1 52 37 -3 26.5
20:35 1026 30.3 856 25.28 11.3 52.3 37 -2.9 26.8
20:40 1026 30.3 856 25.28 11.5 52.8 36 -3 26.6
20:45 1026 30.3 855 25.25 11.6 52.8 36 -2.8 26.9
20:50 1026 30.3 855 25.25 11.4 52.5 37 -2.7 27.1
20:55 1026 30.3 855 25.25 11.3 52.4 35 -3.4 25.9
21:00 1026 30.3 855 25.25 11.2 52.2 38 -2.6 27.4
21:05 1026 30.3 855 25.25 10.7 51.3 40 -2.4 27.8
21:10 1026 30.3 855 25.25 10.4 50.8 40 -2.4 27.7
21:15 1026 30.3 855 25.25 10.5 50.9 39 -2.8 26.9
21:20 1026 30.3 855 25.25 10.8 51.4 38 -2.8 27
21:25 1026 30.3 856 25.28 10.9 51.6 37 -3 26.5
21:30 1026 30.3 856 25.28 11.3 52.3 36 -3.3 26.1
21:35 1026 30.3 856 25.28 11.7 53.1 34 -3.4 25.9
21:40 1026 30.3 856 25.28 11.8 53.2 35 -3.1 26.5
21:45 1026 30.3 856 25.28 11.6 52.9 36 -3 26.5
21:50 1026 30.3 856 25.28 11.5 52.8 35 -3.4 25.9
21:55 1026 30.3 856 25.28 11.6 52.9 35 -3.3 26.1
22:00 1026 30.3 856 25.28 11.4 52.5 36 -3.2 26.2
22:05 1026 30.3 856 25.28 11.5 52.6 36 -3 26.7
22:10 1026 30.3 855 25.25 11.5 52.7 36 -3.1 26.4
22:15 1026 30.3 855 25.25 11.4 52.5 34 -3.7 25.3
22:20 1026 30.3 855 25.25 11.5 52.7 34 -3.9 25
22:25 1026 30.3 856 25.28 11.5 52.8 34 -3.9 25
22:30 1026 30.3 856 25.28 11.4 52.5 36 -3.1 26.4
22:35 1026 30.3 856 25.28 11 51.8 37 -3 26.6
22:40 1026 30.3 856 25.28 10.8 51.4 37 -3.1 26.4
22:45 1026 30.3 856 25.28 10.6 51.1 39 -2.7 27.1
22:50 1026 30.3 856 25.28 10.2 50.3 39 -3.2 26.3
22:55 1026 30.3 856 25.28 10.3 50.5 39 -3.1 26.5
23:00 1026 30.3 856 25.28 10.4 50.6 37 -3.5 25.7
23:05 1026 30.3 856 25.28 10.3 50.6 39 -3.2 26.3
23:10 1026 30.3 856 25.28 10.2 50.4 39 -3.3 26.1
23:15 1026 30.3 856 25.28 10.1 50.2 39 -3.3 26
23:20 1026 30.3 856 25.28 10.1 50.2 38 -3.6 25.6
23:25 1026 30.3 856 25.28 10.2 50.3 38 -3.4 25.8
23:30 1026 30.3 856 25.28 10.1 50.2 38 -3.4 25.8
23:35 1026 30.3 855 25.25 10 50 38 -3.5 25.7
23:40 1026 30.3 855 25.25 10.1 50.1 38 -3.7 25.4
23:45 1026 30.3 855 25.25 10.4 50.8 36 -3.9 25
23:50 1026 30.3 855 25.25 10.6 51 35 -4.1 24.6
23:55 1026 30.3 855 25.25 10.7 51.3 34 -4.5 24
24:00 1026 30.3 855 25.25 11.1 51.9 33 -4.4 24